Time;durP1;ratioP1;P1;durP2;ratioP2;P2;SDS_P1;SDS_P2;PMS_P1;PMS_P2;Temp;Humidity;BMP_temperature;BMP_pressure;BME280_temperature;BME280_humidity;BME280_pressure;Samples;Min_cycle;Max_cycle;Signal;HPM_P1;HPM_P2
2021/09/15 00:16:07;;;;;;;11.27;6.57;;;;;;;;;;4718653;28;20215;-62
2021/09/15 00:18:33;;;;;;;9.80;6.40;;;;;;;;;;4158354;34;20114;-62
2021/09/15 00:20:59;;;;;;;10.68;6.87;;;;;;;;;;4163344;34;20538;-62
2021/09/15 00:23:25;;;;;;;9.63;7.10;;;;;;;;;;4163494;34;20609;-62
2021/09/15 00:25:50;;;;;;;12.73;7.78;;;;;;;;;;4163412;34;20545;-62
2021/09/15 00:28:16;;;;;;;12.13;7.00;;;;;;;;;;4163152;34;20477;-62
2021/09/15 00:30:42;;;;;;;10.80;7.43;;;;;;;;;;4163341;34;20529;-62
2021/09/15 00:33:08;;;;;;;10.02;7.12;;;;;;;;;;4163431;34;20544;-62
2021/09/15 00:35:34;;;;;;;9.75;7.72;;;;;;;;;;4163298;34;20127;-62
2021/09/15 00:38:00;;;;;;;9.18;7.30;;;;;;;;;;4163356;34;20118;-62
2021/09/15 00:40:26;;;;;;;10.35;7.85;;;;;;;;;;4163509;34;20132;-62
2021/09/15 00:42:51;;;;;;;10.27;7.90;;;;;;;;;;4163367;34;20123;-62
2021/09/15 00:45:18;;;;;;;11.63;7.87;;;;;;;;;;4163400;34;20137;-62
2021/09/15 00:47:44;;;;;;;12.70;8.25;;;;;;;;;;4163295;34;20495;-62
2021/09/15 00:50:10;;;;;;;13.43;8.15;;;;;;;;;;4161898;34;20131;-62
2021/09/15 00:52:36;;;;;;;15.07;7.68;;;;;;;;;;4161780;34;20135;-62
2021/09/15 00:55:02;;;;;;;8.98;8.07;;;;;;;;;;4163228;34;20127;-62
2021/09/15 00:57:28;;;;;;;8.90;6.97;;;;;;;;;;4163013;34;20136;-62
2021/09/15 00:59:54;;;;;;;9.95;7.57;;;;;;;;;;4163209;34;20123;-62
2021/09/15 01:02:20;;;;;;;9.80;7.45;;;;;;;;;;4163140;34;20139;-62
2021/09/15 01:04:45;;;;;;;9.27;7.90;;;;;;;;;;4161892;34;20142;-62
2021/09/15 01:07:11;;;;;;;13.05;7.85;;;;;;;;;;4162938;34;20161;-62
2021/09/15 01:09:37;;;;;;;11.10;7.05;;;;;;;;;;4163603;34;20122;-62
2021/09/15 01:12:04;;;;;;;9.45;7.90;;;;;;;;;;4163553;34;20134;-62
2021/09/15 01:14:29;;;;;;;14.55;7.25;;;;;;;;;;4152570;34;20528;-62
2021/09/15 01:16:58;;;;;;;10.18;7.90;;;;;;;;;;4164718;34;20121;-62
2021/09/15 01:19:24;;;;;;;10.38;7.20;;;;;;;;;;4163441;34;20526;-62
2021/09/15 01:21:50;;;;;;;10.93;8.00;;;;;;;;;;4164916;34;20131;-62
2021/09/15 01:24:16;;;;;;;10.90;7.72;;;;;;;;;;4165057;34;20109;-62
2021/09/15 01:26:42;;;;;;;12.32;8.30;;;;;;;;;;4163558;34;20129;-62
2021/09/15 01:29:32;;;;;;;13.13;8.23;;;;;;;;;;4164950;34;20122;-62
2021/09/15 01:31:59;;;;;;;12.48;8.57;;;;;;;;;;4162167;34;20118;-64
2021/09/15 01:34:26;;;;;;;10.23;8.35;;;;;;;;;;4163771;34;20521;-65
2021/09/15 01:36:52;;;;;;;12.68;8.90;;;;;;;;;;4163579;34;20145;-64
2021/09/15 01:39:18;;;;;;;12.37;8.98;;;;;;;;;;4163471;34;20103;-64
2021/09/15 01:41:44;;;;;;;12.40;9.15;;;;;;;;;;4163375;34;20103;-64
2021/09/15 01:44:10;;;;;;;9.38;8.25;;;;;;;;;;4164807;34;20105;-65
2021/09/15 01:46:36;;;;;;;9.57;7.85;;;;;;;;;;4164782;34;20137;-64
2021/09/15 01:49:01;;;;;;;11.25;8.57;;;;;;;;;;4164717;34;20229;-64
2021/09/15 01:51:27;;;;;;;11.95;7.62;;;;;;;;;;4163549;34;20130;-63
2021/09/15 01:53:53;;;;;;;9.38;8.02;;;;;;;;;;4164608;34;20118;-64
2021/09/15 01:56:19;;;;;;;9.73;7.93;;;;;;;;;;4164817;34;20110;-64
2021/09/15 01:58:45;;;;;;;11.32;8.05;;;;;;;;;;4164822;34;20268;-64
2021/09/15 02:01:11;;;;;;;7.97;7.00;;;;;;;;;;4164981;34;20515;-63
2021/09/15 02:03:36;;;;;;;10.90;7.47;;;;;;;;;;4164645;34;20571;-64
2021/09/15 02:06:02;;;;;;;9.88;8.10;;;;;;;;;;4164647;34;20554;-64
2021/09/15 02:08:28;;;;;;;11.30;7.28;;;;;;;;;;4164262;34;20490;-64
2021/09/15 02:10:54;;;;;;;7.95;7.15;;;;;;;;;;4164248;34;20123;-61
2021/09/15 02:13:21;;;;;;;8.95;6.95;;;;;;;;;;4164541;34;20111;-61
2021/09/15 02:15:47;;;;;;;8.02;7.00;;;;;;;;;;4164189;34;20118;-61
2021/09/15 02:18:13;;;;;;;8.77;7.62;;;;;;;;;;4162987;34;20279;-61
2021/09/15 02:20:39;;;;;;;8.60;6.72;;;;;;;;;;4164371;34;20130;-64
2021/09/15 02:23:05;;;;;;;11.60;8.02;;;;;;;;;;4168696;34;20103;-64
2021/09/15 02:25:31;;;;;;;10.50;7.30;;;;;;;;;;4160754;34;20393;-64
2021/09/15 02:27:57;;;;;;;8.95;7.00;;;;;;;;;;4161543;34;20223;-64
2021/09/15 02:30:23;;;;;;;10.02;6.50;;;;;;;;;;4164623;34;20103;-64
2021/09/15 02:32:49;;;;;;;8.23;6.40;;;;;;;;;;4164228;34;20103;-65
2021/09/15 02:35:15;;;;;;;8.57;6.87;;;;;;;;;;4164606;34;20473;-64
2021/09/15 02:37:41;;;;;;;8.98;6.65;;;;;;;;;;4162764;34;20562;-64
2021/09/15 02:40:07;;;;;;;8.85;6.50;;;;;;;;;;4162938;34;20252;-64
2021/09/15 02:42:34;;;;;;;9.65;6.47;;;;;;;;;;4163682;34;20103;-65
2021/09/15 02:44:59;;;;;;;6.90;6.05;;;;;;;;;;4164322;34;20110;-64
2021/09/15 02:47:25;;;;;;;7.10;6.40;;;;;;;;;;4164330;34;20110;-64
2021/09/15 02:49:51;;;;;;;8.55;6.80;;;;;;;;;;4164313;34;20126;-64
2021/09/15 02:52:17;;;;;;;6.60;5.90;;;;;;;;;;4162587;34;20126;-64
2021/09/15 02:54:43;;;;;;;8.90;5.60;;;;;;;;;;4162889;34;20573;-64
2021/09/15 02:57:09;;;;;;;6.03;5.00;;;;;;;;;;4164175;34;20523;-63
2021/09/15 02:59:35;;;;;;;11.18;5.80;;;;;;;;;;4167266;34;20099;-68
2021/09/15 03:02:01;;;;;;;7.32;4.87;;;;;;;;;;4160342;34;20114;-64
2021/09/15 03:04:27;;;;;;;9.10;6.25;;;;;;;;;;4150447;34;20285;-63
2021/09/15 03:06:52;;;;;;;7.70;5.80;;;;;;;;;;4150426;34;20134;-66
2021/09/15 03:09:18;;;;;;;7.28;5.90;;;;;;;;;;4150806;34;20127;-67
2021/09/15 03:11:44;;;;;;;8.10;5.60;;;;;;;;;;4160345;34;20239;-67
2021/09/15 03:14:10;;;;;;;7.22;5.22;;;;;;;;;;4148950;34;20555;-64
2021/09/15 03:16:36;;;;;;;9.50;4.75;;;;;;;;;;4159670;34;20130;-64
2021/09/15 03:19:03;;;;;;;6.00;4.45;;;;;;;;;;4149877;34;20630;-64
2021/09/15 03:21:29;;;;;;;3.87;3.45;;;;;;;;;;4149260;34;20119;-64
2021/09/15 03:23:55;;;;;;;4.50;3.60;;;;;;;;;;4150611;34;20137;-65
2021/09/15 03:26:21;;;;;;;4.90;4.30;;;;;;;;;;4137860;34;20145;-64
2021/09/15 03:28:46;;;;;;;4.78;3.90;;;;;;;;;;4148253;34;20547;-65
2021/09/15 03:31:12;;;;;;;3.37;3.08;;;;;;;;;;4150402;34;20122;-66
2021/09/15 03:33:38;;;;;;;4.07;3.25;;;;;;;;;;4148976;34;20106;-65
2021/09/15 03:36:04;;;;;;;5.15;3.80;;;;;;;;;;4150602;34;20122;-65
2021/09/15 03:38:30;;;;;;;4.45;3.80;;;;;;;;;;4148970;34;20287;-65
2021/09/15 03:40:56;;;;;;;4.70;4.00;;;;;;;;;;4150214;34;20154;-67
2021/09/15 03:43:22;;;;;;;4.05;3.40;;;;;;;;;;4148776;34;20223;-66
2021/09/15 03:45:48;;;;;;;7.90;4.07;;;;;;;;;;4150351;34;20283;-66
2021/09/15 03:48:14;;;;;;;5.37;3.30;;;;;;;;;;4148855;34;20111;-67
2021/09/15 03:50:40;;;;;;;6.90;3.75;;;;;;;;;;4150130;34;20222;-64
2021/09/15 03:53:06;;;;;;;7.50;4.47;;;;;;;;;;4149070;34;20566;-64
2021/09/15 03:55:32;;;;;;;7.37;4.45;;;;;;;;;;4150142;34;20106;-64
2021/09/15 03:57:58;;;;;;;8.32;3.87;;;;;;;;;;4150364;34;20133;-65
2021/09/15 04:00:26;;;;;;;7.85;4.00;;;;;;;;;;4150062;34;20613;-64
2021/09/15 04:02:52;;;;;;;5.85;3.10;;;;;;;;;;4148613;34;20103;-64
2021/09/15 04:05:18;;;;;;;6.12;3.12;;;;;;;;;;4150289;34;20130;-64
2021/09/15 04:07:44;;;;;;;3.90;2.10;;;;;;;;;;4149966;34;20535;-64
2021/09/15 04:10:11;;;;;;;6.45;2.80;;;;;;;;;;4150013;34;20121;-63
2021/09/15 04:12:37;;;;;;;5.25;2.60;;;;;;;;;;4149942;34;20110;-64
2021/09/15 04:15:04;;;;;;;3.20;2.22;;;;;;;;;;4150147;34;20147;-64
2021/09/15 04:17:30;;;;;;;2.75;2.30;;;;;;;;;;4149804;34;20483;-64
2021/09/15 04:19:56;;;;;;;4.43;2.45;;;;;;;;;;4149864;34;20131;-64
2021/09/15 04:22:22;;;;;;;4.62;2.42;;;;;;;;;;4149974;34;20200;-64
2021/09/15 04:32:45;;;;;;;3.03;2.20;;;;;;;;;;4149963;34;20538;-64
2021/09/15 04:35:12;;;;;;;3.17;2.50;;;;;;;;;;4149903;34;20122;-64
2021/09/15 04:37:38;;;;;;;9.70;2.87;;;;;;;;;;4149898;34;20095;-64
2021/09/15 04:40:05;;;;;;;4.60;2.92;;;;;;;;;;4137269;34;20094;-64
2021/09/15 04:42:31;;;;;;;5.93;2.53;;;;;;;;;;4149795;34;20130;-64
2021/09/15 04:44:57;;;;;;;4.30;2.83;;;;;;;;;;4149752;34;20110;-64
2021/09/15 04:47:23;;;;;;;5.47;2.80;;;;;;;;;;4149883;34;20131;-64
2021/09/15 04:49:49;;;;;;;4.40;2.75;;;;;;;;;;4149574;34;20114;-64
2021/09/15 04:52:15;;;;;;;13.82;2.83;;;;;;;;;;4150020;34;20204;-64
2021/09/15 04:54:41;;;;;;;5.85;2.60;;;;;;;;;;4149565;34;20177;-64
2021/09/15 04:57:07;;;;;;;8.85;2.50;;;;;;;;;;4149960;34;20103;-63
2021/09/15 04:59:33;;;;;;;6.37;2.20;;;;;;;;;;4149606;34;20139;-64
2021/09/15 05:01:59;;;;;;;4.75;2.35;;;;;;;;;;4149540;34;20126;-64
2021/09/15 05:04:25;;;;;;;7.60;2.45;;;;;;;;;;4148351;34;20234;-66
2021/09/15 05:06:52;;;;;;;5.90;3.10;;;;;;;;;;4148173;34;20099;-66
2021/09/15 05:09:18;;;;;;;2.20;2.00;;;;;;;;;;4149713;34;20110;-68
2021/09/15 05:11:44;;;;;;;3.25;2.12;;;;;;;;;;4149372;34;20129;-67
2021/09/15 05:14:10;;;;;;;3.25;2.25;;;;;;;;;;4136881;34;20121;-66
2021/09/15 05:16:36;;;;;;;8.10;2.15;;;;;;;;;;4136820;34;20149;-66
2021/09/15 05:19:02;;;;;;;8.45;2.30;;;;;;;;;;4149365;34;20135;-66
2021/09/15 05:21:47;;;;;;;5.30;2.15;;;;;;;;;;4149334;34;20203;-66
2021/09/15 05:24:13;;;;;;;3.03;2.20;;;;;;;;;;4149363;34;20111;-67
2021/09/15 05:26:39;;;;;;;2.25;1.70;;;;;;;;;;4149373;34;20203;-67
2021/09/15 05:29:05;;;;;;;3.55;2.20;;;;;;;;;;4149522;34;20115;-68
2021/09/15 05:31:31;;;;;;;3.35;2.15;;;;;;;;;;4149386;34;20127;-66
2021/09/15 05:33:56;;;;;;;5.50;1.87;;;;;;;;;;4147951;34;20102;-67
2021/09/15 05:36:22;;;;;;;2.50;1.50;;;;;;;;;;4147944;34;20494;-67
2021/09/15 05:38:49;;;;;;;2.22;1.87;;;;;;;;;;4149456;34;20106;-67
2021/09/15 05:41:15;;;;;;;7.90;2.05;;;;;;;;;;4147831;34;20150;-67
2021/09/15 05:43:41;;;;;;;4.70;1.90;;;;;;;;;;4149426;34;20122;-66
2021/09/15 05:46:06;;;;;;;2.83;1.37;;;;;;;;;;4149193;34;20110;-67
2021/09/15 05:48:32;;;;;;;1.20;1.12;;;;;;;;;;4152718;34;20409;-66
2021/09/15 05:50:59;;;;;;;2.30;1.50;;;;;;;;;;4168523;34;20110;-67
2021/09/15 05:53:25;;;;;;;3.53;1.80;;;;;;;;;;4164596;34;20122;-68
2021/09/15 05:55:51;;;;;;;4.43;1.92;;;;;;;;;;4164714;34;20178;-67
2021/09/15 05:58:18;;;;;;;2.70;1.60;;;;;;;;;;4163375;34;20141;-67
2021/09/15 06:00:44;;;;;;;7.93;1.85;;;;;;;;;;4163134;34;20561;-68
2021/09/15 06:03:10;;;;;;;2.10;1.70;;;;;;;;;;4164656;34;20098;-67
2021/09/15 06:05:36;;;;;;;3.12;1.65;;;;;;;;;;4164464;34;20195;-67
2021/09/15 06:08:02;;;;;;;2.58;1.90;;;;;;;;;;4165002;34;20107;-68
2021/09/15 06:10:28;;;;;;;1.92;1.60;;;;;;;;;;4164848;34;20455;-68
2021/09/15 06:12:54;;;;;;;2.85;1.42;;;;;;;;;;4164431;34;20106;-68
2021/09/15 06:15:20;;;;;;;3.40;1.92;;;;;;;;;;4164787;34;20566;-69
2021/09/15 06:17:46;;;;;;;2.62;1.70;;;;;;;;;;4162783;34;20131;-69
2021/09/15 06:20:12;;;;;;;1.40;1.30;;;;;;;;;;4164416;34;20557;-69
2021/09/15 06:22:38;;;;;;;3.87;1.75;;;;;;;;;;4164520;34;20130;-69
2021/09/15 06:25:05;;;;;;;2.80;1.83;;;;;;;;;;4163038;34;20545;-66
2021/09/15 06:27:31;;;;;;;2.50;1.65;;;;;;;;;;4164071;34;20554;-66
2021/09/15 06:29:56;;;;;;;1.92;1.42;;;;;;;;;;4164768;34;20113;-66
2021/09/15 06:32:25;;;;;;;4.10;1.83;;;;;;;;;;4163339;34;20129;-66
2021/09/15 06:34:50;;;;;;;5.68;1.80;;;;;;;;;;4164567;34;20203;-66
2021/09/15 06:37:16;;;;;;;3.15;1.80;;;;;;;;;;4163033;34;20135;-66
2021/09/15 06:39:42;;;;;;;2.05;1.58;;;;;;;;;;4164384;34;20118;-66
2021/09/15 06:42:08;;;;;;;3.33;2.30;;;;;;;;;;4164447;34;20110;-66
2021/09/15 06:44:34;;;;;;;2.37;1.70;;;;;;;;;;4164199;34;20114;-66
2021/09/15 06:47:00;;;;;;;2.28;1.62;;;;;;;;;;4162969;34;20128;-68
2021/09/15 06:49:26;;;;;;;2.80;1.55;;;;;;;;;;4164387;34;20103;-66
2021/09/15 06:51:52;;;;;;;2.10;1.60;;;;;;;;;;4164460;34;20129;-67
2021/09/15 06:54:18;;;;;;;4.72;1.65;;;;;;;;;;4164251;34;20118;-67
2021/09/15 06:56:45;;;;;;;5.30;2.08;;;;;;;;;;4164380;34;20153;-67
2021/09/15 06:59:12;;;;;;;2.25;1.48;;;;;;;;;;4162806;34;20186;-68
2021/09/15 07:01:37;;;;;;;1.73;1.35;;;;;;;;;;4164442;34;20098;-63
2021/09/15 07:04:04;;;;;;;2.08;1.52;;;;;;;;;;4163324;34;20597;-66
2021/09/15 07:06:30;;;;;;;6.87;1.75;;;;;;;;;;4164176;34;20170;-63
2021/09/15 07:08:55;;;;;;;2.03;1.45;;;;;;;;;;4164117;34;20214;-64
2021/09/15 07:11:21;;;;;;;1.67;1.30;;;;;;;;;;4162753;34;20114;-63
2021/09/15 07:13:48;;;;;;;4.95;1.67;;;;;;;;;;4164137;34;20130;-63
2021/09/15 07:16:13;;;;;;;2.33;1.73;;;;;;;;;;4162692;34;20622;-63
2021/09/15 07:18:39;;;;;;;4.40;1.70;;;;;;;;;;4164010;34;20106;-63
2021/09/15 07:21:05;;;;;;;3.25;1.50;;;;;;;;;;4163923;34;20126;-63
2021/09/15 07:23:31;;;;;;;1.85;1.60;;;;;;;;;;4163947;34;20215;-63
2021/09/15 07:25:57;;;;;;;2.30;1.62;;;;;;;;;;4162432;34;20122;-62
2021/09/15 07:28:23;;;;;;;1.60;1.30;;;;;;;;;;4163948;34;20190;-63
2021/09/15 07:31:01;;;;;;;3.90;1.30;;;;;;;;;;4163901;34;20861;-63
2021/09/15 07:33:44;;;;;;;3.17;1.50;;;;;;;;;;4163093;34;20122;-63
2021/09/15 07:36:10;;;;;;;4.53;1.80;;;;;;;;;;4163836;34;20527;-63
2021/09/15 07:38:36;;;;;;;2.35;1.60;;;;;;;;;;4163811;34;20211;-64
2021/09/15 07:41:02;;;;;;;4.07;1.55;;;;;;;;;;4163864;34;20130;-64
2021/09/15 07:43:28;;;;;;;1.40;1.30;;;;;;;;;;4162492;34;20227;-67
2021/09/15 07:45:54;;;;;;;4.37;1.70;;;;;;;;;;4162140;34;20586;-67
2021/09/15 07:48:20;;;;;;;1.67;1.50;;;;;;;;;;4160355;34;20531;-68
2021/09/15 07:50:48;;;;;;;2.90;1.27;;;;;;;;;;4161967;34;20581;-69
2021/09/15 07:53:14;;;;;;;1.50;1.40;;;;;;;;;;4162425;34;20114;-69
2021/09/15 07:55:40;;;;;;;2.08;1.60;;;;;;;;;;4163548;34;20178;-69
2021/09/15 07:58:06;;;;;;;1.85;1.60;;;;;;;;;;4163787;34;20095;-69
2021/09/15 08:00:32;;;;;;;5.10;1.70;;;;;;;;;;4162366;34;20107;-67
2021/09/15 08:02:58;;;;;;;4.28;1.70;;;;;;;;;;4163539;34;20154;-67
2021/09/15 08:05:24;;;;;;;1.50;1.40;;;;;;;;;;4163691;34;20130;-66
2021/09/15 08:07:50;;;;;;;4.78;1.77;;;;;;;;;;4163773;34;20205;-66
2021/09/15 08:10:16;;;;;;;3.25;1.40;;;;;;;;;;4163693;34;20550;-66
2021/09/15 08:12:42;;;;;;;2.90;1.40;;;;;;;;;;4163473;34;20130;-66
2021/09/15 08:15:08;;;;;;;2.92;1.70;;;;;;;;;;4163354;34;20352;-66
2021/09/15 08:17:34;;;;;;;3.62;1.77;;;;;;;;;;4163668;34;20460;-64
2021/09/15 08:20:00;;;;;;;3.42;1.55;;;;;;;;;;4163443;34;20210;-65
2021/09/15 08:22:26;;;;;;;1.23;1.17;;;;;;;;;;4163827;34;20106;-65
2021/09/15 08:24:52;;;;;;;7.62;1.58;;;;;;;;;;4163836;34;20625;-64
2021/09/15 08:27:18;;;;;;;2.20;1.40;;;;;;;;;;4163517;34;20115;-65
2021/09/15 08:29:47;;;;;;;1.87;1.30;;;;;;;;;;4163558;34;20538;-64
2021/09/15 08:32:15;;;;;;;3.00;1.62;;;;;;;;;;4162528;34;20130;-65
2021/09/15 08:34:41;;;;;;;4.32;1.62;;;;;;;;;;4163882;34;20126;-66
2021/09/15 08:37:07;;;;;;;4.70;1.90;;;;;;;;;;4163422;34;20111;-65
2021/09/15 08:39:33;;;;;;;2.47;1.40;;;;;;;;;;4163559;34;20102;-65
2021/09/15 08:41:59;;;;;;;3.50;1.70;;;;;;;;;;4162203;34;20182;-65
2021/09/15 08:44:26;;;;;;;5.28;1.60;;;;;;;;;;4163448;34;20110;-66
2021/09/15 08:46:53;;;;;;;2.03;1.50;;;;;;;;;;4162121;34;20214;-66
2021/09/15 08:49:19;;;;;;;8.00;2.42;;;;;;;;;;4162370;34;20105;-64
2021/09/15 08:51:45;;;;;;;1.98;1.40;;;;;;;;;;4162096;34;20130;-66
2021/09/15 08:54:14;;;;;;;2.28;1.52;;;;;;;;;;4163439;34;20121;-65
2021/09/15 08:56:41;;;;;;;3.30;1.40;;;;;;;;;;4163169;34;20142;-66
2021/09/15 08:59:06;;;;;;;4.72;1.50;;;;;;;;;;4161907;34;20107;-65
2021/09/15 09:01:32;;;;;;;4.93;1.52;;;;;;;;;;4163293;34;20102;-65
2021/09/15 09:03:58;;;;;;;2.35;1.45;;;;;;;;;;4163282;34;20495;-66
2021/09/15 09:06:34;;;;;;;2.03;1.55;;;;;;;;;;4163104;34;20126;-66
2021/09/15 09:09:03;;;;;;;2.37;1.87;;;;;;;;;;4163373;34;20121;-66
2021/09/15 09:11:34;;;;;;;1.90;1.42;;;;;;;;;;4162937;34;20091;-66
2021/09/15 09:14:38;;;;;;;1.95;1.52;;;;;;;;;;4163839;34;20189;-65
2021/09/15 09:17:32;;;;;;;1.73;1.42;;;;;;;;;;4168108;34;20111;-65
2021/09/15 09:20:31;;;;;;;5.62;1.80;;;;;;;;;;4161627;34;20487;-65
2021/09/15 09:23:04;;;;;;;1.75;1.40;;;;;;;;;;4162283;34;20111;-66
2021/09/15 09:25:36;;;;;;;1.40;1.30;;;;;;;;;;4162227;34;20114;-66
2021/09/15 09:28:16;;;;;;;1.23;1.10;;;;;;;;;;4163559;34;20111;-66
2021/09/15 09:30:42;;;;;;;2.70;1.90;;;;;;;;;;4164338;34;20118;-66
2021/09/15 09:33:08;;;;;;;1.67;1.33;;;;;;;;;;4164099;34;20095;-66
2021/09/15 09:35:38;;;;;;;2.42;1.75;;;;;;;;;;4164136;34;20118;-65
2021/09/15 09:38:17;;;;;;;4.90;2.55;;;;;;;;;;4164294;34;20283;-65
2021/09/15 09:40:56;;;;;;;4.10;1.60;;;;;;;;;;4163920;34;20121;-66
2021/09/15 09:43:22;;;;;;;3.08;1.42;;;;;;;;;;4163937;34;20129;-66
2021/09/15 09:45:48;;;;;;;3.85;1.48;;;;;;;;;;4162567;34;20116;-65
2021/09/15 09:48:34;;;;;;;1.42;1.27;;;;;;;;;;4162789;34;20455;-66
2021/09/15 09:51:02;;;;;;;1.90;1.37;;;;;;;;;;4163905;34;20131;-66
2021/09/15 09:53:28;;;;;;;3.62;1.90;;;;;;;;;;4163944;34;20429;-66
2021/09/15 09:55:57;;;;;;;1.75;1.20;;;;;;;;;;4163853;34;20606;-66
2021/09/15 09:58:26;;;;;;;1.30;1.20;;;;;;;;;;4162486;34;20214;-65
2021/09/15 10:00:54;;;;;;;1.30;1.20;;;;;;;;;;4162415;34;20095;-65
2021/09/15 10:03:20;;;;;;;2.05;1.25;;;;;;;;;;4163777;34;20114;-66
2021/09/15 10:05:46;;;;;;;2.40;1.60;;;;;;;;;;4163743;34;20126;-66
2021/09/15 10:08:12;;;;;;;3.40;1.30;;;;;;;;;;4162381;34;20237;-66
2021/09/15 10:10:39;;;;;;;6.47;1.70;;;;;;;;;;4163522;34;20125;-66
2021/09/15 10:13:08;;;;;;;1.77;1.40;;;;;;;;;;4162594;34;20123;-66
2021/09/15 10:15:45;;;;;;;1.95;1.42;;;;;;;;;;4163695;34;20110;-67
2021/09/15 10:18:12;;;;;;;1.67;1.40;;;;;;;;;;4163246;34;20126;-66
2021/09/15 10:20:38;;;;;;;4.97;1.60;;;;;;;;;;4152869;34;20118;-66
2021/09/15 10:23:33;;;;;;;8.57;1.55;;;;;;;;;;4138333;34;20758;-65
2021/09/15 10:25:59;;;;;;;2.60;1.98;;;;;;;;;;4150930;34;20227;-65
2021/09/15 10:28:24;;;;;;;2.22;1.58;;;;;;;;;;4149704;34;20142;-62
2021/09/15 10:30:52;;;;;;;1.67;1.55;;;;;;;;;;4149396;34;20148;-66
2021/09/15 10:33:36;;;;;;;1.60;1.33;;;;;;;;;;4149520;34;20125;-67
2021/09/15 10:36:23;;;;;;;1.55;1.45;;;;;;;;;;4150765;34;20121;-63
2021/09/15 10:38:55;;;;;;;2.95;1.55;;;;;;;;;;4150642;34;20468;-65
2021/09/15 10:41:33;;;;;;;4.25;1.33;;;;;;;;;;4151009;34;20134;-65
2021/09/15 10:44:06;;;;;;;2.28;1.40;;;;;;;;;;4150668;34;20115;-66
2021/09/15 10:46:32;;;;;;;1.40;1.30;;;;;;;;;;4150702;34;20178;-65
2021/09/15 10:49:20;;;;;;;5.00;1.40;;;;;;;;;;4150740;34;20536;-64
2021/09/15 10:52:07;;;;;;;1.20;1.10;;;;;;;;;;4150766;34;20139;-63
2021/09/15 10:54:40;;;;;;;1.83;1.50;;;;;;;;;;4159559;34;20540;-63
2021/09/15 10:57:20;;;;;;;3.78;1.40;;;;;;;;;;4164598;34;20206;-64
2021/09/15 10:59:55;;;;;;;3.80;1.60;;;;;;;;;;4164139;34;20597;-64
2021/09/15 11:02:34;;;;;;;2.12;1.52;;;;;;;;;;4164585;34;20616;-64
2021/09/15 11:05:26;;;;;;;3.83;1.40;;;;;;;;;;4164175;34;20119;-64
2021/09/15 11:07:57;;;;;;;1.35;1.27;;;;;;;;;;4160263;34;20119;-64
2021/09/15 11:10:35;;;;;;;6.00;1.48;;;;;;;;;;4164018;34;20213;-64
2021/09/15 11:13:09;;;;;;;1.65;1.20;;;;;;;;;;4164089;34;20110;-65
2021/09/15 11:15:46;;;;;;;1.77;1.23;;;;;;;;;;4163900;34;20129;-64
2021/09/15 11:18:28;;;;;;;1.55;1.40;;;;;;;;;;4164234;34;20286;-65
2021/09/15 11:20:56;;;;;;;1.23;1.12;;;;;;;;;;4160390;34;20117;-65
2021/09/15 11:23:25;;;;;;;3.05;1.37;;;;;;;;;;4149106;34;20122;-65
2021/09/15 11:25:51;;;;;;;3.28;1.60;;;;;;;;;;4148464;34;20107;-64
2021/09/15 11:28:18;;;;;;;10.98;1.80;;;;;;;;;;4148599;34;20221;-64
2021/09/15 11:30:57;;;;;;;3.20;1.40;;;;;;;;;;4149473;34;20474;-63
2021/09/15 11:33:30;;;;;;;11.68;1.73;;;;;;;;;;4150197;34;20113;-64
2021/09/15 11:36:03;;;;;;;2.53;1.50;;;;;;;;;;4150560;34;20130;-64
2021/09/15 11:38:32;;;;;;;2.78;1.58;;;;;;;;;;4137543;34;20130;-65
2021/09/15 11:41:06;;;;;;;2.80;1.50;;;;;;;;;;4150195;34;20195;-66
2021/09/15 11:43:32;;;;;;;2.42;1.35;;;;;;;;;;4150446;34;20111;-66
2021/09/15 11:45:58;;;;;;;2.40;1.40;;;;;;;;;;4149019;34;20126;-67
2021/09/15 11:48:27;;;;;;;1.58;1.35;;;;;;;;;;4149098;34;20123;-66
2021/09/15 11:50:54;;;;;;;1.40;1.30;;;;;;;;;;4149830;34;20535;-67
2021/09/15 11:53:20;;;;;;;2.85;1.52;;;;;;;;;;4148838;34;20146;-66
2021/09/15 11:55:49;;;;;;;3.22;1.30;;;;;;;;;;4148728;34;20211;-67
2021/09/15 11:58:16;;;;;;;2.85;1.55;;;;;;;;;;4159754;34;20095;-67
2021/09/15 12:00:42;;;;;;;2.40;1.75;;;;;;;;;;4163849;34;20424;-63
2021/09/15 12:03:10;;;;;;;1.35;1.23;;;;;;;;;;4163701;34;20129;-67
2021/09/15 12:05:36;;;;;;;4.62;1.92;;;;;;;;;;4151028;34;20117;-62
2021/09/15 12:08:05;;;;;;;2.95;1.45;;;;;;;;;;4150768;34;20194;-68
2021/09/15 12:10:31;;;;;;;1.37;1.27;;;;;;;;;;4162274;34;20558;-66
2021/09/15 12:12:58;;;;;;;1.90;1.23;;;;;;;;;;4162417;34;20487;-67
2021/09/15 12:15:24;;;;;;;2.62;1.40;;;;;;;;;;4162329;34;20173;-64
2021/09/15 12:17:58;;;;;;;4.65;1.42;;;;;;;;;;4163549;34;20118;-67
2021/09/15 12:20:40;;;;;;;5.28;1.62;;;;;;;;;;4163746;34;20122;-66
2021/09/15 12:23:06;;;;;;;1.50;1.02;;;;;;;;;;4151371;34;20098;-61
2021/09/15 12:25:32;;;;;;;2.25;1.40;;;;;;;;;;4163459;34;20110;-62
2021/09/15 12:27:58;;;;;;;2.60;1.30;;;;;;;;;;4162383;34;20135;-62
2021/09/15 12:30:24;;;;;;;5.40;1.80;;;;;;;;;;4162151;34;20145;-62
2021/09/15 12:33:00;;;;;;;2.05;1.23;;;;;;;;;;4161915;34;20542;-63
2021/09/15 12:35:34;;;;;;;3.85;2.42;;;;;;;;;;4163469;34;20186;-65
2021/09/15 12:38:07;;;;;;;3.25;1.67;;;;;;;;;;4163366;34;20102;-63
2021/09/15 12:40:34;;;;;;;4.10;1.70;;;;;;;;;;4163341;34;20549;-68
2021/09/15 12:43:03;;;;;;;5.32;1.85;;;;;;;;;;4163534;34;20110;-65
2021/09/15 12:45:30;;;;;;;5.12;1.80;;;;;;;;;;4163277;34;20555;-66
2021/09/15 12:47:56;;;;;;;5.47;1.70;;;;;;;;;;4163469;34;20117;-65
2021/09/15 12:50:32;;;;;;;1.35;1.25;;;;;;;;;;4161158;34;20193;-62
2021/09/15 12:53:06;;;;;;;3.40;1.65;;;;;;;;;;4163048;34;20111;-62
2021/09/15 12:55:32;;;;;;;2.75;1.77;;;;;;;;;;4163267;34;20125;-64
2021/09/15 12:58:03;;;;;;;3.10;1.90;;;;;;;;;;4163334;34;20122;-62
2021/09/15 13:00:33;;;;;;;3.92;2.00;;;;;;;;;;4163196;34;20432;-65
2021/09/15 13:03:03;;;;;;;1.40;1.30;;;;;;;;;;4160700;34;20106;-65
2021/09/15 13:05:31;;;;;;;3.50;1.95;;;;;;;;;;4162366;34;20211;-65
2021/09/15 13:07:57;;;;;;;2.67;1.50;;;;;;;;;;4161643;34;20611;-61
2021/09/15 13:10:24;;;;;;;3.58;1.98;;;;;;;;;;4163147;34;20575;-63
2021/09/15 13:12:50;;;;;;;2.67;1.92;;;;;;;;;;4161738;34;20118;-65
2021/09/15 13:15:16;;;;;;;1.67;1.50;;;;;;;;;;4163545;34;20138;-63
2021/09/15 13:17:41;;;;;;;7.62;3.05;;;;;;;;;;4163034;34;20134;-65
2021/09/15 13:20:09;;;;;;;4.10;1.77;;;;;;;;;;4163228;34;20625;-63
2021/09/15 13:22:38;;;;;;;2.05;1.67;;;;;;;;;;4162950;34;20523;-65
2021/09/15 13:25:04;;;;;;;8.48;2.80;;;;;;;;;;4163267;34;20121;-61
2021/09/15 13:27:30;;;;;;;4.78;2.10;;;;;;;;;;4163001;34;20582;-65
2021/09/15 13:29:56;;;;;;;5.47;2.00;;;;;;;;;;4163035;34;20138;-62
2021/09/15 13:32:22;;;;;;;6.12;2.10;;;;;;;;;;4162906;34;20122;-63
2021/09/15 13:34:48;;;;;;;2.75;1.90;;;;;;;;;;4162995;34;20222;-66
2021/09/15 13:37:14;;;;;;;2.92;1.92;;;;;;;;;;4163163;34;20123;-63
2021/09/15 13:39:40;;;;;;;4.55;1.98;;;;;;;;;;4162923;34;20118;-65
2021/09/15 13:42:06;;;;;;;3.83;1.92;;;;;;;;;;4162948;34;20098;-65
2021/09/15 13:44:32;;;;;;;3.45;2.12;;;;;;;;;;4162754;34;20125;-64
2021/09/15 13:46:58;;;;;;;4.85;2.05;;;;;;;;;;4162813;34;20126;-65
2021/09/15 13:49:24;;;;;;;5.45;2.12;;;;;;;;;;4161636;34;20137;-64
2021/09/15 13:51:50;;;;;;;4.65;1.80;;;;;;;;;;4162709;34;20118;-65
2021/09/15 13:54:16;;;;;;;4.00;1.73;;;;;;;;;;4161409;34;20153;-64
2021/09/15 13:56:42;;;;;;;3.08;2.17;;;;;;;;;;4162921;34;20142;-64
2021/09/15 13:59:08;;;;;;;5.05;2.17;;;;;;;;;;4163021;34;20130;-64
2021/09/15 14:01:34;;;;;;;6.28;2.97;;;;;;;;;;4158646;34;20232;-65
2021/09/15 14:04:00;;;;;;;6.68;3.37;;;;;;;;;;4161959;34;20551;-62
2021/09/15 14:06:26;;;;;;;5.45;2.58;;;;;;;;;;4162060;34;20239;-64
2021/09/15 14:08:52;;;;;;;5.90;2.20;;;;;;;;;;4162143;34;20554;-62
2021/09/15 14:11:18;;;;;;;6.05;2.12;;;;;;;;;;4162003;34;20191;-64
2021/09/15 14:13:45;;;;;;;6.35;3.00;;;;;;;;;;4161945;34;20121;-63
2021/09/15 14:16:14;;;;;;;4.78;2.40;;;;;;;;;;4156119;34;20115;-68
2021/09/15 14:18:40;;;;;;;5.78;2.35;;;;;;;;;;4133908;34;20515;-68
2021/09/15 14:21:05;;;;;;;2.28;1.90;;;;;;;;;;4156114;34;20130;-63
2021/09/15 14:23:31;;;;;;;3.83;2.70;;;;;;;;;;4159352;34;20142;-67
2021/09/15 14:25:57;;;;;;;4.72;1.80;;;;;;;;;;4157408;34;20483;-64
2021/09/15 14:28:23;;;;;;;2.97;1.67;;;;;;;;;;4157175;34;20122;-65
2021/09/15 14:30:49;;;;;;;2.15;1.50;;;;;;;;;;4152827;34;20554;-65
2021/09/15 14:33:15;;;;;;;7.62;2.20;;;;;;;;;;4142709;34;20219;-65
2021/09/15 14:35:41;;;;;;;10.70;2.20;;;;;;;;;;4141921;34;20131;-64
2021/09/15 14:38:07;;;;;;;2.00;1.70;;;;;;;;;;4154094;34;20112;-64
2021/09/15 14:40:33;;;;;;;2.45;1.50;;;;;;;;;;4160035;34;20645;-64
2021/09/15 14:42:59;;;;;;;4.85;1.80;;;;;;;;;;4155419;34;20126;-66
2021/09/15 14:45:25;;;;;;;4.25;1.67;;;;;;;;;;4160080;34;20538;-65
2021/09/15 14:47:51;;;;;;;4.20;1.73;;;;;;;;;;4162027;34;20121;-65
2021/09/15 14:50:16;;;;;;;3.10;1.60;;;;;;;;;;4156634;34;20126;-66
2021/09/15 14:52:42;;;;;;;2.78;1.50;;;;;;;;;;4140042;34;20145;-67
2021/09/15 14:55:09;;;;;;;3.83;1.60;;;;;;;;;;4155920;34;20133;-66
2021/09/15 14:57:35;;;;;;;2.28;1.60;;;;;;;;;;4156575;34;20130;-66
2021/09/15 15:00:02;;;;;;;4.43;1.73;;;;;;;;;;4146862;34;20527;-66
2021/09/15 15:02:28;;;;;;;4.65;1.77;;;;;;;;;;4155889;34;20111;-67
2021/09/15 15:04:54;;;;;;;2.53;1.92;;;;;;;;;;4141913;34;20211;-64
2021/09/15 15:07:20;;;;;;;5.20;2.22;;;;;;;;;;4162690;34;20135;-65